LFOE 220930Z AUTO 32006KT 280V010 CAVOK 16/08 Q1022

ElémentsDécodage
LFOE Station météo située sur l'aérodrome de EVREUX Fauville
220930Z émis le 22 du mois à 09h30 UTC
AUTO Bulletin édité par un automate
32006KT vent du 320°, 06 noeuds
280V010 vent de direction variable entre 280° et 010°
CAVOK Ceiling And Visibility OK
- Visibilité de 10 Km ou plus
- Pas de nuage au-dessous de 1500m ou au-dessous de l'altitude minimale du secteur la plus élevée (si>1500m) et absence de CB
- pas de temps présent significatif
16/08 température 16°C, point de rosée 08°C
 soit une humidité relative de 59%
Q1022 la pression au niveau de la mer (QNH) est de 1022 hPa